Time;durP1;ratioP1;P1;durP2;ratioP2;P2;SDS_P1;SDS_P2;PMS_P1;PMS_P2;Temp;Humidity;BMP_temperature;BMP_pressure;BME280_temperature;BME280_humidity;BME280_pressure;Samples;Min_cycle;Max_cycle;Signal;HPM_P1;HPM_P2
2024/01/24 00:01:37;;;;;;;11.70;2.67;;;10.40;99.90;;;;;;5016973;28;20646;-80
2024/01/24 00:04:03;;;;;;;11.93;2.60;;;10.60;99.90;;;;;;5032724;28;20050;-80
2024/01/24 00:06:29;;;;;;;9.43;2.70;;;10.60;99.90;;;;;;5013595;28;20031;-80
2024/01/24 00:08:55;;;;;;;13.15;3.00;;;10.70;99.90;;;;;;4979810;28;20058;-80
2024/01/24 00:11:20;;;;;;;10.57;2.75;;;10.50;99.90;;;;;;5010229;28;20271;-80
2024/01/24 00:13:46;;;;;;;9.48;2.78;;;10.50;99.90;;;;;;4953840;28;20034;-80
2024/01/24 00:16:12;;;;;;;10.68;2.78;;;10.60;99.90;;;;;;4974226;28;20034;-80
2024/01/24 00:18:38;;;;;;;10.10;2.70;;;10.50;99.90;;;;;;4999349;28;20573;-80
2024/01/24 00:21:03;;;;;;;12.45;2.92;;;10.50;99.90;;;;;;5015080;28;20033;-80
2024/01/24 00:23:29;;;;;;;12.18;2.45;;;10.60;99.90;;;;;;4985975;28;20093;-80
2024/01/24 00:25:55;;;;;;;9.77;2.63;;;10.50;99.90;;;;;;4985033;28;20046;-80
2024/01/24 00:28:22;;;;;;;9.07;2.78;;;10.50;99.90;;;;;;4986572;28;20243;-80
2024/01/24 00:30:47;;;;;;;13.02;2.70;;;10.50;99.90;;;;;;4979034;28;20129;-80
2024/01/24 00:33:15;;;;;;;11.25;2.50;;;10.50;99.90;;;;;;4947029;28;20412;-81
2024/01/24 00:35:41;;;;;;;11.27;2.88;;;10.60;99.90;;;;;;4982509;28;20496;-80
2024/01/24 00:38:07;;;;;;;10.75;3.00;;;10.40;99.90;;;;;;4934382;28;20118;-80
2024/01/24 00:40:32;;;;;;;13.70;2.92;;;10.50;99.90;;;;;;4979079;28;20048;-80
2024/01/24 00:42:58;;;;;;;11.13;2.88;;;10.60;99.90;;;;;;4964265;28;20121;-80
2024/01/24 00:45:24;;;;;;;11.90;3.40;;;10.40;99.90;;;;;;4982115;28;20047;-80
2024/01/24 00:47:50;;;;;;;10.68;2.70;;;10.50;99.90;;;;;;4997183;28;20039;-81
2024/01/24 00:50:15;;;;;;;9.98;2.70;;;10.50;99.90;;;;;;4965461;28;20439;-80
2024/01/24 00:52:41;;;;;;;14.23;3.35;;;10.40;99.90;;;;;;4966142;28;20038;-80
2024/01/24 00:55:07;;;;;;;9.52;2.30;;;10.60;99.90;;;;;;4967862;28;20137;-81
2024/01/24 00:57:33;;;;;;;14.35;3.75;;;10.50;99.90;;;;;;4976151;28;20133;-80
2024/01/24 00:59:59;;;;;;;12.15;2.60;;;10.40;99.90;;;;;;4983035;28;20047;-81
2024/01/24 01:02:25;;;;;;;13.23;2.53;;;10.40;99.90;;;;;;4979990;28;20104;-80
2024/01/24 01:04:51;;;;;;;13.27;2.85;;;10.50;99.90;;;;;;4966372;28;20122;-81
2024/01/24 01:07:16;;;;;;;14.75;3.03;;;10.50;99.90;;;;;;4981626;28;20046;-81
2024/01/24 01:09:42;;;;;;;11.98;3.35;;;10.40;99.90;;;;;;4965316;28;20097;-80
2024/01/24 01:12:08;;;;;;;12.50;3.00;;;10.50;99.90;;;;;;4980677;28;20038;-81
2024/01/24 01:14:34;;;;;;;11.70;2.80;;;10.50;99.90;;;;;;4965813;28;20038;-81
2024/01/24 01:16:59;;;;;;;11.93;2.80;;;10.50;99.90;;;;;;4964822;28;20038;-81
2024/01/24 01:19:25;;;;;;;11.52;3.10;;;10.50;99.90;;;;;;4998029;28;20692;-80
2024/01/24 01:21:51;;;;;;;11.02;2.53;;;11.50;99.90;;;;;;4966137;28;20039;-81
2024/01/24 01:24:16;;;;;;;9.95;2.40;;;10.40;99.90;;;;;;4982442;28;20409;-81
2024/01/24 01:26:42;;;;;;;9.43;2.10;;;10.40;99.90;;;;;;4982327;28;20047;-81
2024/01/24 01:29:08;;;;;;;10.32;2.50;;;10.50;99.90;;;;;;4981025;28;20035;-81
2024/01/24 01:31:33;;;;;;;8.50;2.20;;;10.40;99.90;;;;;;4966065;28;20634;-81
2024/01/24 01:34:00;;;;;;;10.65;2.60;;;10.60;99.90;;;;;;4966310;28;20496;-81
2024/01/24 01:36:26;;;;;;;10.10;2.80;;;10.50;99.90;;;;;;4967030;28;20503;-81
2024/01/24 01:38:53;;;;;;;9.70;2.33;;;10.70;99.90;;;;;;4964275;28;20039;-80
2024/01/24 01:41:18;;;;;;;13.13;2.80;;;10.70;99.90;;;;;;4965107;28;20043;-80
2024/01/24 01:43:44;;;;;;;9.13;2.30;;;10.60;99.90;;;;;;4948376;28;20421;-80
2024/01/24 01:46:17;;;;;;;10.38;2.47;;;10.80;99.90;;;;;;4994775;28;20037;-80
2024/01/24 01:48:42;;;;;;;8.23;2.20;;;10.60;99.90;;;;;;4961849;28;20161;-80
2024/01/24 01:51:08;;;;;;;9.52;2.50;;;10.80;99.90;;;;;;4965245;28;20114;-80
2024/01/24 01:53:38;;;;;;;8.85;2.47;;;10.80;99.90;;;;;;4964227;28;20038;-80
2024/01/24 01:56:10;;;;;;;11.18;2.58;;;10.90;99.90;;;;;;4950182;28;20046;-80
2024/01/24 01:58:37;;;;;;;11.52;2.45;;;10.80;99.90;;;;;;4963399;28;20035;-80
2024/01/24 02:01:07;;;;;;;8.80;1.88;;;10.90;99.90;;;;;;4965355;28;20046;-80
2024/01/24 02:03:33;;;;;;;7.90;2.00;;;11.00;99.90;;;;;;4950108;28;20404;-81
2024/01/24 02:06:00;;;;;;;8.93;2.00;;;10.80;99.90;;;;;;4977882;28;20062;-80
2024/01/24 02:08:25;;;;;;;9.75;2.38;;;11.00;99.90;;;;;;4980618;28;20078;-80
2024/01/24 02:10:51;;;;;;;7.53;1.80;;;11.10;99.90;;;;;;4933387;28;20058;-80
2024/01/24 02:13:17;;;;;;;10.57;2.65;;;10.90;99.90;;;;;;4980471;28;20051;-80
2024/01/24 02:15:43;;;;;;;8.77;2.10;;;11.00;99.90;;;;;;4964644;28;20089;-81
2024/01/24 02:18:08;;;;;;;8.57;2.00;;;10.90;99.90;;;;;;4980814;28;20496;-80
2024/01/24 02:20:34;;;;;;;8.30;2.10;;;10.90;99.90;;;;;;4949784;28;20519;-80
2024/01/24 02:23:00;;;;;;;9.13;2.88;;;10.90;99.90;;;;;;4977659;28;20093;-80
2024/01/24 02:25:26;;;;;;;8.80;2.25;;;10.90;99.90;;;;;;4962586;28;20081;-81
2024/01/24 02:27:52;;;;;;;8.90;2.15;;;10.90;99.90;;;;;;4980984;28;20070;-81
2024/01/24 02:30:17;;;;;;;8.77;2.13;;;11.00;99.90;;;;;;4996232;28;20078;-80
2024/01/24 02:32:43;;;;;;;8.80;2.00;;;11.10;99.90;;;;;;4965644;28;20108;-80
2024/01/24 02:35:09;;;;;;;9.15;2.13;;;10.90;99.90;;;;;;5002656;28;20054;-80
2024/01/24 02:37:35;;;;;;;7.90;1.90;;;11.00;99.90;;;;;;4945604;28;20046;-81
2024/01/24 02:40:00;;;;;;;9.57;2.47;;;11.00;99.90;;;;;;4981622;28;20207;-80
2024/01/24 02:42:26;;;;;;;6.45;2.08;;;10.90;99.90;;;;;;4970668;28;20070;-80
2024/01/24 02:44:52;;;;;;;8.95;2.20;;;11.00;99.90;;;;;;4984357;28;20094;-80
2024/01/24 02:47:21;;;;;;;8.27;2.17;;;10.90;99.90;;;;;;4951673;28;20374;-80
2024/01/24 02:49:48;;;;;;;8.90;2.38;;;11.00;99.90;;;;;;4984345;28;20034;-80
2024/01/24 02:52:14;;;;;;;9.65;2.50;;;11.00;99.90;;;;;;4934252;28;20039;-81
2024/01/24 02:54:41;;;;;;;7.88;1.92;;;11.00;99.90;;;;;;5001360;28;20126;-80
2024/01/24 02:57:07;;;;;;;9.75;2.10;;;10.90;99.90;;;;;;4967495;28;20118;-80
2024/01/24 02:59:33;;;;;;;10.50;2.30;;;10.90;99.90;;;;;;4986028;28;20568;-81
2024/01/24 03:01:59;;;;;;;9.15;2.15;;;10.90;99.90;;;;;;4967930;28;20053;-81
2024/01/24 03:04:24;;;;;;;11.68;2.40;;;11.00;99.90;;;;;;4999378;28;20085;-80
2024/01/24 03:06:50;;;;;;;9.05;2.28;;;11.00;99.90;;;;;;4965603;28;20117;-81
2024/01/24 03:09:16;;;;;;;7.68;2.20;;;10.80;99.90;;;;;;4983483;28;20476;-80
2024/01/24 03:11:42;;;;;;;12.07;2.72;;;10.80;99.90;;;;;;4986084;28;20027;-81
2024/01/24 03:14:08;;;;;;;9.98;2.22;;;10.90;99.90;;;;;;4966329;28;20042;-80
2024/01/24 03:16:35;;;;;;;11.15;2.92;;;10.90;99.90;;;;;;5002908;28;20480;-81
2024/01/24 03:19:01;;;;;;;10.82;2.75;;;10.80;99.90;;;;;;4967691;28;20523;-81
2024/01/24 03:21:26;;;;;;;11.93;2.50;;;10.90;99.90;;;;;;4998627;28;20733;-81
2024/01/24 03:23:52;;;;;;;13.23;2.80;;;10.70;99.90;;;;;;4953681;28;20039;-81
2024/01/24 03:26:18;;;;;;;11.90;2.95;;;10.80;99.90;;;;;;4968856;28;21889;-80
2024/01/24 03:28:43;;;;;;;10.35;2.60;;;10.90;99.90;;;;;;4951805;28;20575;-80
2024/01/24 03:31:09;;;;;;;12.32;2.65;;;10.70;99.90;;;;;;4983866;28;20093;-80
2024/01/24 03:33:36;;;;;;;11.68;3.30;;;10.60;99.90;;;;;;4983831;28;20058;-81
2024/01/24 03:36:02;;;;;;;11.23;3.10;;;10.60;99.90;;;;;;4966428;28;20057;-81
2024/01/24 03:38:29;;;;;;;13.05;2.72;;;10.50;99.90;;;;;;4966113;28;20077;-80
2024/01/24 03:40:55;;;;;;;11.38;3.08;;;10.50;99.90;;;;;;4984520;28;20508;-80
2024/01/24 03:43:20;;;;;;;14.73;3.22;;;10.50;99.90;;;;;;4966829;28;20038;-81
2024/01/24 03:45:46;;;;;;;15.10;3.00;;;10.60;99.90;;;;;;4965234;28;20451;-81
2024/01/24 03:48:12;;;;;;;14.80;3.33;;;10.60;99.90;;;;;;4999614;28;20489;-80
2024/01/24 03:50:38;;;;;;;14.15;3.58;;;10.60;99.90;;;;;;4986939;28;20049;-80
2024/01/24 03:53:04;;;;;;;11.43;2.85;;;10.40;99.90;;;;;;4999903;28;20034;-80
2024/01/24 03:55:30;;;;;;;11.70;3.13;;;10.50;99.90;;;;;;4999774;28;20408;-80
2024/01/24 03:57:56;;;;;;;14.10;3.58;;;10.50;99.90;;;;;;4964062;28;20051;-80
2024/01/24 04:00:23;;;;;;;14.18;3.25;;;10.50;99.90;;;;;;4966329;28;20068;-80
2024/01/24 04:02:49;;;;;;;14.57;3.35;;;10.50;99.90;;;;;;4983633;28;20488;-80
2024/01/24 04:05:16;;;;;;;12.50;3.05;;;10.50;99.90;;;;;;4965865;28;20071;-80
2024/01/24 04:07:42;;;;;;;16.83;3.60;;;10.50;99.90;;;;;;4964757;28;20278;-80
2024/01/24 04:10:08;;;;;;;14.98;3.67;;;10.50;99.90;;;;;;4998826;28;20543;-80
2024/01/24 04:12:34;;;;;;;19.80;4.35;;;10.50;99.90;;;;;;4966804;28;20078;-80
2024/01/24 04:15:00;;;;;;;15.82;3.72;;;10.40;99.90;;;;;;4949623;28;20532;-80
2024/01/24 04:17:25;;;;;;;13.82;3.92;;;10.40;99.90;;;;;;4980642;28;20046;-80
2024/01/24 04:19:51;;;;;;;17.42;3.85;;;10.50;99.90;;;;;;4956486;28;20046;-81
2024/01/24 04:22:17;;;;;;;14.13;3.33;;;10.50;99.90;;;;;;4965664;28;20038;-80
2024/01/24 04:24:44;;;;;;;13.60;3.58;;;10.50;99.90;;;;;;4954812;28;20039;-80
2024/01/24 04:27:10;;;;;;;19.45;3.97;;;10.40;99.90;;;;;;4982297;28;20074;-81
2024/01/24 04:29:35;;;;;;;14.57;3.47;;;10.30;99.90;;;;;;4984022;28;20452;-81
2024/01/24 04:32:01;;;;;;;17.65;4.03;;;10.30;99.90;;;;;;4984109;28;20043;-81
2024/01/24 04:34:27;;;;;;;17.70;3.95;;;10.20;99.90;;;;;;4963927;28;20105;-81
2024/01/24 04:36:54;;;;;;;14.32;3.20;;;10.20;99.90;;;;;;4965817;28;20047;-80
2024/01/24 04:39:21;;;;;;;16.90;3.92;;;10.20;99.90;;;;;;4995467;28;20038;-81
2024/01/24 04:41:47;;;;;;;16.45;4.38;;;10.30;99.90;;;;;;4982124;28;20050;-80
2024/01/24 04:44:13;;;;;;;15.73;4.53;;;10.20;99.90;;;;;;4966880;28;20297;-80
2024/01/24 04:46:39;;;;;;;15.55;4.20;;;10.20;99.90;;;;;;4966518;28;20039;-80
2024/01/24 04:49:05;;;;;;;16.45;4.47;;;10.20;99.90;;;;;;4965038;28;20041;-80
2024/01/24 04:51:30;;;;;;;16.83;4.47;;;10.20;99.90;;;;;;4964769;28;20144;-80
2024/01/24 04:53:56;;;;;;;18.42;4.78;;;10.10;99.90;;;;;;4966887;28;20041;-80
2024/01/24 04:56:22;;;;;;;18.42;3.78;;;10.10;99.90;;;;;;4981509;28;20381;-80
2024/01/24 04:58:47;;;;;;;18.50;4.22;;;10.10;99.90;;;;;;4998454;28;20112;-80
2024/01/24 05:01:13;;;;;;;23.17;3.95;;;10.20;99.90;;;;;;4966004;28;20481;-81
2024/01/24 05:03:39;;;;;;;17.45;4.45;;;10.10;99.90;;;;;;4982309;28;20251;-80
2024/01/24 05:06:05;;;;;;;21.77;4.32;;;10.20;99.90;;;;;;4982696;28;20035;-80
2024/01/24 05:08:31;;;;;;;17.23;4.45;;;10.10;99.90;;;;;;4987567;28;20038;-80
2024/01/24 05:10:57;;;;;;;20.20;4.60;;;10.10;99.90;;;;;;4963038;28;20772;-80
2024/01/24 05:13:22;;;;;;;18.80;4.13;;;10.20;99.90;;;;;;4982082;28;20074;-80
2024/01/24 05:15:49;;;;;;;18.42;4.68;;;10.10;99.90;;;;;;4963098;28;20039;-81
2024/01/24 05:18:15;;;;;;;16.20;4.30;;;10.20;99.90;;;;;;4978910;28;20101;-81
2024/01/24 05:20:41;;;;;;;16.98;4.78;;;10.20;99.90;;;;;;5009078;28;20070;-81
2024/01/24 05:23:07;;;;;;;16.25;4.00;;;10.20;99.90;;;;;;4932768;28;20075;-80
2024/01/24 05:25:33;;;;;;;19.50;4.60;;;10.20;99.90;;;;;;4984338;28;20048;-80
2024/01/24 05:28:00;;;;;;;16.50;3.95;;;10.20;99.90;;;;;;4965011;28;20039;-81
2024/01/24 05:30:25;;;;;;;20.30;4.80;;;10.20;99.90;;;;;;4966525;28;20057;-80
2024/01/24 05:32:56;;;;;;;17.55;4.35;;;10.10;99.90;;;;;;4947524;28;20035;-81
2024/01/24 05:35:22;;;;;;;16.27;4.85;;;10.20;99.90;;;;;;4964936;28;20492;-80
2024/01/24 05:37:47;;;;;;;20.63;4.63;;;10.20;99.90;;;;;;4964508;28;20075;-81
2024/01/24 05:40:13;;;;;;;20.35;4.38;;;10.20;99.90;;;;;;4934343;28;20066;-80
2024/01/24 05:42:39;;;;;;;22.77;5.45;;;10.20;99.90;;;;;;4979138;28;20097;-81
2024/01/24 05:45:05;;;;;;;20.15;4.93;;;10.20;99.90;;;;;;4997628;28;20096;-80
2024/01/24 05:47:32;;;;;;;22.85;5.03;;;10.20;99.90;;;;;;4980700;28;20045;-80
2024/01/24 05:49:59;;;;;;;18.38;5.15;;;10.20;99.90;;;;;;4946338;28;20063;-80
2024/01/24 05:52:24;;;;;;;21.17;4.88;;;10.20;99.90;;;;;;4989955;28;20045;-81
2024/01/24 05:54:50;;;;;;;17.67;4.60;;;10.20;99.90;;;;;;4950318;28;20035;-80
2024/01/24 05:57:16;;;;;;;17.30;4.93;;;10.20;99.90;;;;;;4933238;28;20039;-80
2024/01/24 05:59:41;;;;;;;22.60;5.85;;;10.20;99.90;;;;;;4981867;28;20051;-80
2024/01/24 06:02:07;;;;;;;20.73;5.05;;;10.20;99.90;;;;;;4983547;28;20045;-80
2024/01/24 06:04:33;;;;;;;22.98;5.57;;;9.90;99.90;;;;;;4967952;28;20043;-80
2024/01/24 06:07:01;;;;;;;18.02;5.00;;;10.10;99.90;;;;;;4963084;28;20492;-80
2024/01/24 06:09:30;;;;;;;16.17;4.55;;;10.00;99.90;;;;;;4966517;28;20058;-80
2024/01/24 06:11:56;;;;;;;19.05;4.72;;;10.00;99.90;;;;;;4998969;28;20082;-80
2024/01/24 06:14:21;;;;;;;21.00;5.28;;;9.90;99.90;;;;;;4984224;28;20078;-80
2024/01/24 06:16:47;;;;;;;22.45;5.38;;;9.90;99.90;;;;;;4965456;28;20237;-81
2024/01/24 06:19:13;;;;;;;21.52;5.25;;;9.90;99.90;;;;;;4951489;28;20125;-80
2024/01/24 06:21:39;;;;;;;20.88;5.47;;;9.90;99.90;;;;;;4983953;28;20038;-80
2024/01/24 06:24:07;;;;;;;19.23;4.95;;;9.90;99.90;;;;;;4950537;28;20066;-80
2024/01/24 06:26:33;;;;;;;22.02;5.63;;;9.80;99.90;;;;;;4964842;28;20032;-81
2024/01/24 06:28:59;;;;;;;17.63;5.07;;;9.90;99.90;;;;;;4952513;28;20042;-80
2024/01/24 06:31:25;;;;;;;20.67;5.25;;;9.90;99.90;;;;;;4968694;28;20097;-80
2024/01/24 06:33:50;;;;;;;20.38;5.10;;;9.90;99.90;;;;;;4968646;28;20047;-80
2024/01/24 06:36:16;;;;;;;20.92;5.00;;;9.80;99.90;;;;;;5001436;28;20038;-81
2024/01/24 06:38:42;;;;;;;25.50;6.10;;;9.80;99.90;;;;;;4997231;28;20508;-80
2024/01/24 06:41:08;;;;;;;23.20;5.15;;;9.80;99.90;;;;;;4952473;28;20035;-80
2024/01/24 06:43:35;;;;;;;21.63;5.68;;;9.80;99.90;;;;;;4984728;28;20038;-80
2024/01/24 06:46:02;;;;;;;20.13;5.43;;;9.70;99.90;;;;;;5001108;28;20035;-81
2024/01/24 06:48:28;;;;;;;21.77;5.93;;;9.70;99.90;;;;;;4965875;28;20407;-82
2024/01/24 06:50:54;;;;;;;21.38;6.00;;;9.70;99.90;;;;;;4969731;28;20042;-82
2024/01/24 06:53:20;;;;;;;26.52;5.55;;;9.70;99.90;;;;;;4968044;28;20035;-81
2024/01/24 06:55:46;;;;;;;22.45;5.03;;;9.70;99.90;;;;;;4964137;28;20042;-81
2024/01/24 06:58:12;;;;;;;19.13;4.80;;;9.60;99.90;;;;;;4962187;28;20562;-81
2024/01/24 07:00:38;;;;;;;23.63;5.25;;;9.70;99.90;;;;;;4996428;28;20039;-81
2024/01/24 07:03:04;;;;;;;23.35;5.88;;;9.60;99.90;;;;;;4964843;28;20035;-82
2024/01/24 07:05:30;;;;;;;19.10;4.60;;;9.60;99.90;;;;;;4950001;28;20042;-82
2024/01/24 07:07:57;;;;;;;22.77;5.63;;;9.50;99.90;;;;;;4951616;28;20381;-82
2024/01/24 07:10:23;;;;;;;23.17;5.50;;;9.50;99.90;;;;;;4996353;28;20587;-82
2024/01/24 07:12:49;;;;;;;22.88;5.68;;;9.50;99.90;;;;;;4967755;28;20165;-81
2024/01/24 07:15:16;;;;;;;24.23;5.63;;;9.50;99.90;;;;;;4975297;28;20042;-81
2024/01/24 07:17:41;;;;;;;17.45;4.90;;;9.50;99.90;;;;;;4983711;28;20038;-81
2024/01/24 07:20:08;;;;;;;20.45;5.03;;;9.50;99.90;;;;;;4953052;28;20031;-81
2024/01/24 07:22:33;;;;;;;21.35;4.72;;;9.60;99.90;;;;;;4983572;28;20057;-81
2024/01/24 07:24:59;;;;;;;18.80;4.85;;;9.60;99.90;;;;;;4950533;28;20620;-80
2024/01/24 07:27:25;;;;;;;21.08;5.68;;;9.60;99.90;;;;;;4964215;28;20085;-81
2024/01/24 07:29:51;;;;;;;19.27;4.70;;;9.50;99.90;;;;;;4949496;28;20105;-81
2024/01/24 07:32:16;;;;;;;22.05;4.88;;;9.50;99.90;;;;;;4951103;28;20142;-81
2024/01/24 07:34:43;;;;;;;20.77;5.32;;;9.50;99.90;;;;;;4954284;28;20066;-81
2024/01/24 07:37:09;;;;;;;21.75;5.10;;;9.50;99.90;;;;;;4996122;28;20038;-81
2024/01/24 07:39:35;;;;;;;18.10;5.20;;;9.40;99.90;;;;;;4947824;28;20451;-81
2024/01/24 07:42:01;;;;;;;18.45;3.95;;;9.40;99.90;;;;;;4956523;28;20049;-81
2024/01/24 07:44:26;;;;;;;17.85;4.78;;;9.40;99.90;;;;;;4951136;28;20039;-81
2024/01/24 07:46:52;;;;;;;18.27;4.93;;;9.50;99.90;;;;;;4949075;28;20047;-81
2024/01/24 07:49:18;;;;;;;20.65;4.72;;;9.40;99.90;;;;;;4966230;28;20066;-81
2024/01/24 07:51:46;;;;;;;21.95;5.05;;;9.50;99.90;;;;;;4953425;28;20078;-81
2024/01/24 07:54:13;;;;;;;22.38;5.53;;;9.50;99.90;;;;;;4954499;28;20413;-81
2024/01/24 07:56:39;;;;;;;17.92;5.40;;;9.50;99.90;;;;;;4951157;28;20078;-81
2024/01/24 07:59:05;;;;;;;18.25;5.30;;;9.50;99.90;;;;;;4997322;28;20035;-81
2024/01/24 08:01:31;;;;;;;19.88;5.63;;;9.50;99.90;;;;;;4999120;28;20042;-81
2024/01/24 08:03:58;;;;;;;21.65;5.35;;;9.50;99.90;;;;;;4990564;28;20048;-81
2024/01/24 08:06:25;;;;;;;23.98;5.80;;;9.50;99.90;;;;;;4966714;28;20046;-81
2024/01/24 08:08:50;;;;;;;19.85;5.32;;;9.40;99.90;;;;;;4968795;28;20053;-81
2024/01/24 08:11:17;;;;;;;21.95;5.35;;;9.50;99.90;;;;;;4939367;28;20038;-81
2024/01/24 08:13:43;;;;;;;20.35;4.57;;;9.40;99.90;;;;;;4974606;28;20035;-82
2024/01/24 08:16:09;;;;;;;18.92;5.75;;;9.50;99.90;;;;;;4999231;28;20046;-81
2024/01/24 08:18:35;;;;;;;20.80;4.82;;;9.40;99.90;;;;;;4965912;28;20046;-81
2024/01/24 08:21:01;;;;;;;25.73;5.57;;;9.50;99.90;;;;;;4932944;28;20039;-81
2024/01/24 08:23:27;;;;;;;21.40;5.35;;;9.50;99.90;;;;;;4984377;28;20053;-81
2024/01/24 08:25:54;;;;;;;20.33;5.38;;;9.50;99.90;;;;;;4967248;28;20110;-81
2024/01/24 08:28:20;;;;;;;18.85;5.25;;;9.50;99.90;;;;;;4983806;28;20039;-82
2024/01/24 08:30:45;;;;;;;21.98;6.00;;;9.60;99.90;;;;;;4964329;28;20046;-81
2024/01/24 08:33:11;;;;;;;23.30;5.28;;;9.50;99.90;;;;;;4976947;28;20041;-82
2024/01/24 08:35:37;;;;;;;23.08;5.90;;;9.50;99.90;;;;;;4933839;28;20412;-81
2024/01/24 08:38:04;;;;;;;19.73;5.30;;;9.40;99.90;;;;;;4984063;28;20047;-81
2024/01/24 08:40:30;;;;;;;21.30;5.70;;;9.50;99.90;;;;;;4983211;28;20056;-82
2024/01/24 08:42:56;;;;;;;19.30;4.95;;;9.40;99.90;;;;;;4946569;28;20054;-82
2024/01/24 08:45:21;;;;;;;18.40;4.63;;;9.50;99.90;;;;;;4947940;28;20069;-82
2024/01/24 08:47:47;;;;;;;17.70;4.63;;;9.50;99.90;;;;;;4999310;28;20039;-81
2024/01/24 08:50:13;;;;;;;22.90;5.18;;;9.40;99.90;;;;;;4967198;28;20030;-82
2024/01/24 08:52:39;;;;;;;18.50;4.80;;;9.50;99.90;;;;;;4982200;28;20082;-82
2024/01/24 08:55:08;;;;;;;20.40;5.75;;;9.50;99.90;;;;;;4964148;28;20057;-81
2024/01/24 08:57:34;;;;;;;20.40;4.85;;;9.50;99.90;;;;;;4949591;28;20078;-81
2024/01/24 09:00:00;;;;;;;22.00;5.30;;;9.50;99.90;;;;;;4981551;28;20224;-81
2024/01/24 09:02:26;;;;;;;16.33;4.50;;;9.50;99.90;;;;;;4964380;28;20398;-81
2024/01/24 09:04:52;;;;;;;19.10;5.18;;;9.50;99.90;;;;;;4948469;28;20043;-81
2024/01/24 09:07:21;;;;;;;24.67;5.20;;;9.50;99.90;;;;;;4969471;28;20495;-81
2024/01/24 09:09:51;;;;;;;22.02;5.72;;;9.50;99.90;;;;;;4981800;28;22030;-81
2024/01/24 09:12:17;;;;;;;22.25;6.30;;;9.50;99.90;;;;;;4965568;28;20039;-81
2024/01/24 09:14:46;;;;;;;19.67;5.65;;;9.60;99.90;;;;;;4992820;28;20054;-81
2024/01/24 09:17:13;;;;;;;17.38;4.45;;;9.60;99.90;;;;;;4948379;28;20074;-81
2024/01/24 09:19:40;;;;;;;22.92;5.07;;;9.60;99.90;;;;;;4982643;28;20496;-81
2024/01/24 09:22:07;;;;;;;19.95;4.85;;;9.50;99.90;;;;;;4982456;28;20413;-82
2024/01/24 09:24:32;;;;;;;19.98;4.50;;;9.60;99.90;;;;;;4963814;28;20066;-81
2024/01/24 09:26:58;;;;;;;24.50;6.28;;;9.70;99.90;;;;;;4965873;28;20627;-81
2024/01/24 09:29:24;;;;;;;20.48;4.82;;;9.70;99.90;;;;;;4953866;28;20453;-81
2024/01/24 09:31:50;;;;;;;19.25;5.10;;;9.70;99.90;;;;;;4998011;28;20038;-82
2024/01/24 09:34:16;;;;;;;17.02;4.63;;;9.70;99.90;;;;;;4946505;28;20499;-81
2024/01/24 09:36:42;;;;;;;19.83;4.90;;;9.70;99.90;;;;;;4979327;28;20039;-82
2024/01/24 09:39:09;;;;;;;18.45;5.13;;;9.80;99.90;;;;;;4963050;28;20047;-82
2024/01/24 09:41:42;;;;;;;22.63;5.03;;;9.80;99.90;;;;;;4962953;28;20031;-82
2024/01/24 09:44:09;;;;;;;19.88;5.22;;;9.80;99.90;;;;;;4966426;28;20121;-82
2024/01/24 09:46:40;;;;;;;19.65;5.13;;;9.80;99.90;;;;;;4984603;28;20406;-82
2024/01/24 09:49:06;;;;;;;17.30;5.13;;;9.90;99.90;;;;;;4952121;28;20163;-82
2024/01/24 09:51:34;;;;;;;21.70;5.45;;;9.90;99.90;;;;;;4986787;28;20492;-82
2024/01/24 09:54:07;;;;;;;17.67;5.28;;;9.90;99.90;;;;;;4981479;28;20089;-81
2024/01/24 09:56:37;;;;;;;23.95;5.28;;;9.90;99.90;;;;;;4968149;28;20055;-82
2024/01/24 09:59:08;;;;;;;22.98;5.47;;;10.00;99.90;;;;;;4965115;28;20031;-81
2024/01/24 10:01:35;;;;;;;19.25;5.07;;;10.00;99.90;;;;;;4982836;28;20079;-82
2024/01/24 10:04:01;;;;;;;17.00;5.13;;;10.00;99.90;;;;;;4997202;28;20047;-82
2024/01/24 10:06:28;;;;;;;24.60;5.88;;;10.00;99.90;;;;;;4967986;28;20038;-81
2024/01/24 10:08:57;;;;;;;18.63;4.95;;;10.00;99.90;;;;;;4952438;28;20057;-82
2024/01/24 10:11:25;;;;;;;21.67;5.05;;;10.00;99.90;;;;;;4954011;28;20114;-81
2024/01/24 10:13:55;;;;;;;21.13;4.97;;;10.00;99.90;;;;;;4981242;28;20117;-82
2024/01/24 10:16:21;;;;;;;21.88;5.43;;;10.00;99.90;;;;;;4965720;28;20528;-82
2024/01/24 10:18:47;;;;;;;25.05;5.68;;;10.00;99.90;;;;;;4984925;28;20112;-82
2024/01/24 10:21:13;;;;;;;20.02;5.10;;;10.00;99.90;;;;;;4969528;28;20117;-82
2024/01/24 10:23:41;;;;;;;21.17;5.15;;;10.10;99.90;;;;;;4967927;28;20186;-82
2024/01/24 10:26:10;;;;;;;19.48;4.72;;;10.10;99.90;;;;;;4996785;28;20042;-82
2024/01/24 10:28:36;;;;;;;20.00;4.93;;;10.20;99.90;;;;;;4970461;28;20535;-82
2024/01/24 10:31:03;;;;;;;17.65;4.47;;;10.20;99.90;;;;;;4969535;28;20117;-81
2024/01/24 10:33:29;;;;;;;17.80;5.03;;;10.20;99.90;;;;;;4968314;28;20050;-82
2024/01/24 10:35:56;;;;;;;18.25;4.75;;;10.20;99.90;;;;;;5006158;28;20043;-81
2024/01/24 10:38:24;;;;;;;17.30;4.90;;;10.30;99.90;;;;;;4935176;28;20045;-81
2024/01/24 10:40:57;;;;;;;22.60;5.00;;;10.30;99.90;;;;;;4999837;28;20054;-82
2024/01/24 10:43:25;;;;;;;20.48;5.63;;;10.30;99.90;;;;;;4969354;28;20118;-81
2024/01/24 10:45:52;;;;;;;16.65;4.72;;;10.20;99.90;;;;;;4995886;28;20045;-81
2024/01/24 10:48:18;;;;;;;18.52;4.63;;;10.20;99.90;;;;;;4969282;28;20031;-81
2024/01/24 10:50:45;;;;;;;21.25;5.05;;;10.20;99.90;;;;;;4970767;28;20401;-82
2024/01/24 10:53:12;;;;;;;20.83;5.05;;;10.30;99.90;;;;;;4970814;28;20595;-81
2024/01/24 10:55:40;;;;;;;17.92;5.47;;;10.30;99.90;;;;;;4964874;28;20038;-82
2024/01/24 10:58:06;;;;;;;22.60;5.07;;;10.30;99.90;;;;;;4955689;28;20034;-82
2024/01/24 11:00:33;;;;;;;18.67;4.88;;;10.30;99.90;;;;;;4973047;28;20842;-82
2024/01/24 11:02:59;;;;;;;22.17;4.80;;;10.30;99.90;;;;;;4961021;28;20109;-81
2024/01/24 11:05:30;;;;;;;25.27;5.65;;;10.20;99.90;;;;;;4970068;28;20456;-81
2024/01/24 11:07:59;;;;;;;20.38;4.72;;;10.20;99.90;;;;;;5001317;28;20070;-82
2024/01/24 11:10:37;;;;;;;21.23;5.40;;;10.20;99.90;;;;;;4956531;28;20039;-82
2024/01/24 11:13:05;;;;;;;19.65;5.00;;;10.20;99.90;;;;;;4981885;28;20484;-82
2024/01/24 11:15:32;;;;;;;19.40;4.68;;;10.20;99.90;;;;;;4955292;28;20039;-82
2024/01/24 11:18:22;;;;;;;17.70;4.78;;;10.20;99.90;;;;;;4952977;28;20669;-82
2024/01/24 11:20:58;;;;;;;22.40;5.30;;;10.20;99.90;;;;;;4986343;28;20042;-81
2024/01/24 11:23:46;;;;;;;21.08;5.25;;;10.30;99.90;;;;;;4989247;28;20523;-82
2024/01/24 11:26:18;;;;;;;18.10;5.40;;;10.30;99.90;;;;;;4995759;28;20102;-81
2024/01/24 11:28:45;;;;;;;19.05;5.03;;;10.30;99.90;;;;;;4939464;28;20048;-82
2024/01/24 11:31:12;;;;;;;21.90;5.30;;;10.20;99.90;;;;;;4970103;28;20039;-82
2024/01/24 11:34:11;;;;;;;18.67;5.05;;;10.20;99.90;;;;;;5000631;28;20046;-81
2024/01/24 11:36:42;;;;;;;17.52;4.45;;;10.20;99.90;;;;;;4986563;28;20047;-81
2024/01/24 11:39:37;;;;;;;21.42;4.85;;;10.20;99.90;;;;;;4980465;28;20389;-82
2024/01/24 11:42:33;;;;;;;16.55;4.68;;;10.20;99.90;;;;;;4969667;28;20049;-81
2024/01/24 11:45:19;;;;;;;16.15;4.13;;;10.20;99.90;;;;;;4967727;28;20042;-82
2024/01/24 11:47:46;;;;;;;19.15;5.05;;;10.20;99.90;;;;;;4968087;28;20038;-82
2024/01/24 11:50:13;;;;;;;17.60;4.95;;;10.10;99.90;;;;;;4981672;28;20093;-81
2024/01/24 11:52:39;;;;;;;16.13;4.78;;;10.20;99.90;;;;;;5002376;28;20082;-81
2024/01/24 11:55:06;;;;;;;19.27;4.82;;;10.10;99.90;;;;;;4952940;28;20049;-82
2024/01/24 11:57:32;;;;;;;15.68;4.20;;;10.10;99.90;;;;;;5001779;28;20117;-82
2024/01/24 11:59:57;;;;;;;20.17;5.05;;;10.10;99.90;;;;;;4966182;28;20043;-81
2024/01/24 12:02:23;;;;;;;15.18;3.88;;;10.10;99.90;;;;;;4998663;28;20050;-81
2024/01/24 12:04:53;;;;;;;18.27;4.45;;;10.10;99.90;;;;;;4936845;28;20117;-82
2024/01/24 12:07:19;;;;;;;21.80;5.20;;;10.10;99.90;;;;;;4983923;28;20094;-82
2024/01/24 12:09:45;;;;;;;20.08;5.13;;;10.10;99.90;;;;;;4986862;28;20043;-82
2024/01/24 12:12:12;;;;;;;17.83;4.90;;;10.10;99.90;;;;;;4969365;28;20035;-82
2024/01/24 12:14:39;;;;;;;18.88;5.07;;;10.20;99.90;;;;;;4967405;28;20034;-82
2024/01/24 12:17:11;;;;;;;17.00;4.88;;;10.20;99.90;;;;;;4950662;28;20042;-82
2024/01/24 12:19:37;;;;;;;22.20;5.03;;;10.10;99.90;;;;;;4985347;28;20503;-82
2024/01/24 12:22:06;;;;;;;19.15;4.93;;;10.10;99.90;;;;;;4983758;28;20041;-82
2024/01/24 12:24:32;;;;;;;19.20;5.15;;;10.20;99.90;;;;;;4953450;28;20054;-82
2024/01/24 12:26:59;;;;;;;19.65;5.03;;;10.20;99.90;;;;;;4934484;28;20121;-83
2024/01/24 12:29:25;;;;;;;16.23;4.43;;;10.20;99.90;;;;;;4969726;28;20035;-83
2024/01/24 12:31:51;;;;;;;16.48;4.40;;;10.20;99.90;;;;;;4967284;28;20043;-83
2024/01/24 12:34:21;;;;;;;19.40;5.03;;;10.30;99.90;;;;;;4970875;28;20527;-83
2024/01/24 12:36:47;;;;;;;17.33;4.00;;;10.30;99.90;;;;;;4945901;28;20105;-83
2024/01/24 12:39:13;;;;;;;16.63;4.15;;;10.30;99.90;;;;;;4962170;28;20031;-83